createdAt,value
2018-09-13T00:03:05.001Z,84.42
2018-09-13T00:07:58.053Z,84.84
2018-09-13T00:12:51.196Z,84.01
2018-09-13T00:17:44.163Z,82.52
2018-09-13T00:22:37.243Z,81.65
2018-09-13T00:27:30.656Z,81.42
2018-09-13T00:32:23.753Z,82.76
2018-09-13T00:37:16.762Z,82.75
2018-09-13T00:42:10.369Z,82.34
2018-09-13T00:47:08.335Z,82.07
2018-09-13T00:52:01.315Z,81.92
2018-09-13T00:56:54.274Z,82.38
2018-09-13T01:01:47.538Z,81.79
2018-09-13T01:06:40.680Z,82.51
2018-09-13T01:11:33.710Z,81.35
2018-09-13T01:16:26.597Z,82.00
2018-09-13T01:21:19.990Z,80.20
2018-09-13T01:26:12.994Z,79.32
2018-09-13T01:31:05.909Z,78.90
2018-09-13T01:35:59.015Z,78.89
2018-09-13T01:40:52.051Z,79.21
2018-09-13T01:45:45.023Z,79.75
2018-09-13T01:50:37.983Z,80.25
2018-09-13T01:55:31.175Z,80.13
2018-09-13T02:00:24.233Z,78.55
2018-09-13T02:05:17.391Z,77.47
2018-09-13T02:10:10.387Z,77.35
2018-09-13T02:15:03.477Z,77.71
2018-09-13T02:19:56.546Z,77.88
2018-09-13T02:24:49.558Z,78.94
2018-09-13T02:29:49.230Z,79.74
2018-09-13T02:34:42.358Z,79.04
2018-09-13T02:39:35.350Z,79.00
2018-09-13T02:44:28.334Z,79.39
2018-09-13T02:49:21.750Z,79.41
2018-09-13T02:54:14.687Z,80.14
2018-09-13T02:59:07.958Z,81.19
2018-09-13T03:04:01.037Z,81.48
2018-09-13T03:08:54.045Z,82.38
2018-09-13T03:13:46.988Z,82.70
2018-09-13T03:18:39.874Z,83.08
2018-09-13T03:23:33.067Z,83.38
2018-09-13T03:28:26.249Z,84.07
2018-09-13T03:33:19.446Z,83.32
2018-09-13T03:38:12.708Z,81.31
2018-09-13T03:43:05.778Z,79.87
2018-09-13T03:47:59.193Z,81.23
2018-09-13T03:52:52.167Z,81.14
2018-09-13T03:57:45.223Z,81.10
2018-09-13T04:02:38.217Z,81.65
2018-09-13T04:07:33.234Z,82.21
2018-09-13T04:12:26.344Z,81.56
2018-09-13T04:17:19.296Z,81.53
2018-09-13T04:22:13.084Z,80.59
2018-09-13T04:27:06.004Z,79.99
2018-09-13T04:31:59.329Z,79.25
2018-09-13T04:36:52.631Z,78.38
2018-09-13T04:41:45.486Z,78.16
2018-09-13T04:46:38.545Z,76.93
2018-09-13T04:51:31.587Z,76.59
2018-09-13T04:56:25.104Z,76.24
2018-09-13T05:01:18.062Z,75.96
2018-09-13T05:06:11.186Z,75.74
2018-09-13T05:11:04.259Z,71.59
2018-09-13T05:15:57.830Z,70.43
2018-09-13T05:20:50.829Z,70.28
2018-09-13T05:25:44.676Z,69.04
2018-09-13T05:30:37.694Z,68.12
2018-09-13T05:35:30.630Z,67.69
2018-09-13T05:40:24.270Z,68.65
2018-09-13T05:45:17.505Z,68.48
2018-09-13T05:50:10.523Z,69.79
2018-09-13T05:55:03.469Z,67.88
2018-09-13T05:59:56.485Z,66.15
2018-09-13T06:04:50.391Z,65.37
2018-09-13T06:09:43.409Z,64.86
2018-09-13T06:14:36.635Z,65.25
2018-09-13T06:19:29.634Z,65.74
2018-09-13T06:24:22.900Z,64.45
2018-09-13T06:29:16.007Z,63.07
2018-09-13T06:34:09.170Z,62.93
2018-09-13T06:39:02.300Z,63.16
2018-09-13T06:43:55.391Z,62.54
2018-09-13T06:48:48.471Z,63.98
2018-09-13T06:53:41.611Z,64.00
2018-09-13T06:58:34.561Z,62.49
2018-09-13T07:03:27.538Z,63.34
2018-09-13T07:08:20.557Z,62.65
2018-09-13T07:13:13.552Z,61.68
2018-09-13T07:18:07.023Z,59.09
2018-09-13T07:23:00.013Z,57.08
2018-09-13T07:27:53.296Z,56.28
2018-09-13T07:32:46.471Z,54.77
2018-09-13T07:37:39.534Z,55.28
2018-09-13T07:42:32.759Z,56.53
2018-09-13T07:47:25.913Z,56.91
2018-09-13T07:52:19.387Z,55.13
2018-09-13T07:57:12.469Z,54.30
2018-09-13T08:02:05.632Z,53.53
2018-09-13T08:06:58.695Z,53.98
2018-09-13T08:11:51.810Z,54.65
2018-09-13T08:16:45.059Z,54.91
2018-09-13T08:21:38.132Z,52.85
2018-09-13T08:26:31.138Z,52.30
2018-09-13T08:31:24.251Z,51.84
2018-09-13T08:36:17.315Z,50.89
2018-09-13T08:41:10.702Z,50.05
2018-09-13T08:46:03.746Z,50.39
2018-09-13T08:50:57.150Z,49.02
2018-09-13T08:55:50.192Z,50.50
2018-09-13T09:00:43.226Z,50.59
2018-09-13T09:05:36.226Z,47.92
2018-09-13T09:10:29.267Z,48.11
2018-09-13T09:15:22.390Z,49.95
2018-09-13T09:20:15.355Z,47.05
2018-09-13T09:25:08.306Z,47.89
2018-09-13T09:30:01.339Z,48.10
2018-09-13T09:34:54.430Z,47.47
2018-09-13T09:39:47.453Z,47.30
2018-09-13T09:44:40.559Z,48.08
2018-09-13T09:49:33.556Z,45.58
2018-09-13T09:54:26.750Z,44.50
2018-09-13T09:59:20.767Z,47.74
2018-09-13T10:04:13.788Z,45.35
2018-09-13T10:09:07.936Z,47.67
2018-09-13T10:14:00.960Z,46.43
2018-09-13T10:18:59.397Z,47.45
2018-09-13T10:23:57.805Z,48.23
2018-09-13T10:28:56.382Z,48.12
2018-09-13T10:33:54.768Z,48.83
2018-09-13T10:38:53.232Z,46.40
2018-09-13T10:43:51.570Z,45.83
2018-09-13T10:48:50.090Z,46.37
2018-09-13T10:53:44.587Z,44.89
2018-09-13T10:58:37.630Z,42.95
2018-09-13T11:03:30.606Z,44.11
2018-09-13T11:08:23.951Z,42.12
2018-09-13T11:14:21.119Z,42.13
2018-09-13T11:19:14.169Z,44.09
2018-09-13T11:24:07.384Z,44.78
2018-09-13T11:29:00.569Z,44.48
2018-09-13T11:33:53.683Z,42.79
2018-09-13T11:38:46.710Z,42.99
2018-09-13T11:43:39.932Z,41.73
2018-09-13T11:48:33.657Z,41.74
2018-09-13T11:53:26.724Z,41.40
2018-09-13T11:58:20.412Z,40.84
2018-09-13T12:03:14.086Z,41.52
2018-09-13T12:08:07.494Z,41.12
2018-09-13T12:13:00.834Z,41.03
2018-09-13T12:17:53.853Z,40.81
2018-09-13T12:22:46.820Z,41.63
2018-09-13T12:27:39.898Z,41.27
2018-09-13T12:32:33.006Z,40.81
2018-09-13T12:37:26.196Z,41.08
2018-09-13T12:42:19.237Z,39.12
2018-09-13T12:47:12.299Z,39.90
2018-09-13T12:52:05.625Z,40.92
2018-09-13T12:56:58.984Z,39.80
2018-09-13T13:01:52.293Z,39.37
2018-09-13T13:06:45.555Z,39.93
2018-09-13T13:11:38.693Z,40.52
2018-09-13T13:16:31.993Z,39.20
2018-09-13T13:21:25.139Z,37.51
2018-09-13T13:26:19.033Z,38.66
2018-09-13T13:31:12.263Z,38.18
2018-09-13T13:36:06.115Z,38.99
2018-09-13T13:41:00.379Z,38.18
2018-09-13T13:45:54.391Z,38.16
2018-09-13T13:50:47.582Z,44.04
2018-09-13T13:55:40.751Z,52.08
2018-09-13T14:00:34.232Z,52.55
2018-09-13T14:05:27.549Z,54.22
2018-09-13T14:10:20.785Z,56.18
2018-09-13T14:15:13.975Z,55.96
2018-09-13T14:20:07.596Z,57.21
2018-09-13T14:25:01.087Z,57.38
2018-09-13T14:29:54.657Z,58.49
2018-09-13T14:34:47.962Z,59.60
2018-09-13T14:39:41.578Z,62.27
2018-09-13T14:44:35.429Z,65.03
2018-09-13T14:49:29.354Z,66.82
2018-09-13T14:54:22.441Z,69.23
2018-09-13T14:59:15.566Z,71.25
2018-09-13T15:04:08.755Z,69.76
2018-09-13T15:09:06.438Z,68.21
2018-09-13T15:13:59.495Z,64.12
2018-09-13T15:18:52.689Z,63.98
2018-09-13T15:23:46.205Z,60.70
2018-09-13T15:28:39.362Z,60.37
2018-09-13T15:33:32.668Z,59.32
2018-09-13T15:38:25.976Z,59.82
2018-09-13T15:43:19.202Z,58.31
2018-09-13T15:48:12.305Z,58.89
2018-09-13T15:53:05.456Z,58.13
2018-09-13T15:57:58.586Z,60.19
2018-09-13T16:02:51.812Z,66.99
2018-09-13T16:07:45.112Z,71.82
2018-09-13T16:12:38.235Z,73.18
2018-09-13T16:17:31.625Z,82.17
2018-09-13T16:22:24.723Z,84.43
2018-09-13T16:27:18.074Z,84.71
2018-09-13T16:32:12.005Z,84.49
2018-09-13T16:37:08.059Z,86.99
2018-09-13T16:42:06.833Z,85.78
2018-09-13T16:47:06.483Z,84.45
2018-09-13T16:51:59.771Z,85.25
2018-09-13T16:56:53.314Z,83.65
2018-09-13T17:01:46.781Z,82.52
2018-09-13T17:06:40.160Z,78.55
2018-09-13T17:11:33.586Z,78.20
2018-09-13T17:16:27.332Z,75.92
2018-09-13T17:21:20.564Z,72.35
2018-09-13T17:26:13.819Z,72.40
2018-09-13T17:31:06.955Z,73.83
2018-09-13T17:36:00.436Z,72.93
2018-09-13T17:40:53.631Z,69.97
2018-09-13T17:45:48.502Z,67.26
2018-09-13T17:50:41.771Z,64.56
2018-09-13T17:55:38.071Z,64.52
2018-09-13T18:00:31.175Z,65.27
2018-09-13T18:05:24.590Z,65.21
2018-09-13T18:10:17.835Z,67.31
2018-09-13T18:15:11.854Z,68.37
2018-09-13T18:20:10.383Z,66.97
2018-09-13T18:25:03.404Z,70.04
2018-09-13T18:29:56.820Z,71.62
2018-09-13T18:34:51.487Z,73.49
2018-09-13T18:39:44.789Z,74.55
2018-09-13T18:44:37.971Z,74.49
2018-09-13T18:49:31.179Z,75.37
2018-09-13T18:54:24.928Z,76.43
2018-09-13T18:59:19.252Z,77.22
2018-09-13T19:04:12.527Z,77.15
2018-09-13T19:09:11.185Z,78.00
2018-09-13T19:14:05.729Z,77.39
2018-09-13T19:18:59.539Z,78.27
2018-09-13T19:23:53.399Z,77.88
2018-09-13T19:28:46.822Z,77.95
2018-09-13T19:33:41.152Z,78.76
2018-09-13T19:38:34.501Z,77.25
2018-09-13T19:43:29.418Z,76.37
2018-09-13T19:48:22.663Z,73.90
2018-09-13T19:53:16.394Z,73.95
2018-09-13T19:58:09.812Z,74.14
2018-09-13T20:03:03.473Z,75.84
2018-09-13T20:07:56.454Z,76.66
2018-09-13T20:12:50.292Z,73.99
2018-09-13T20:17:43.958Z,72.99
2018-09-13T20:22:37.223Z,72.63
2018-09-13T20:27:30.566Z,71.67
2018-09-13T20:32:23.772Z,71.69
2018-09-13T20:37:16.879Z,71.22
2018-09-13T20:42:09.947Z,72.04
2018-09-13T20:47:03.066Z,71.94
2018-09-13T20:51:56.059Z,72.90
2018-09-13T20:56:49.735Z,72.30
2018-09-13T21:01:43.054Z,73.19
2018-09-13T21:06:36.073Z,73.52
2018-09-13T21:11:29.192Z,74.68
2018-09-13T21:16:22.781Z,74.92
2018-09-13T21:21:15.925Z,75.37
2018-09-13T21:26:08.993Z,76.22
2018-09-13T21:31:02.218Z,76.48
2018-09-13T21:35:55.451Z,75.19
2018-09-13T21:40:48.958Z,73.90
2018-09-13T21:45:42.048Z,73.87
2018-09-13T21:50:35.116Z,73.44
2018-09-13T21:55:29.104Z,74.17
2018-09-13T22:00:22.439Z,73.74
2018-09-13T22:05:15.465Z,71.08
2018-09-13T22:10:08.902Z,71.15
2018-09-13T22:15:01.986Z,71.04
2018-09-13T22:19:54.950Z,71.56
2018-09-13T22:24:48.115Z,71.29
2018-09-13T22:29:41.150Z,71.91
2018-09-13T22:34:34.727Z,72.16
2018-09-13T22:39:27.830Z,73.17
2018-09-13T22:44:22.050Z,73.85
2018-09-13T22:49:15.249Z,74.73
2018-09-13T22:54:08.503Z,75.14
2018-09-13T22:59:02.051Z,75.56
2018-09-13T23:03:55.206Z,75.27
2018-09-13T23:08:48.249Z,75.98
2018-09-13T23:13:43.767Z,76.54
2018-09-13T23:18:37.027Z,77.43
2018-09-13T23:23:30.279Z,77.54
2018-09-13T23:28:23.202Z,78.58
2018-09-13T23:33:16.456Z,78.14
2018-09-13T23:38:09.601Z,77.11
2018-09-13T23:43:02.699Z,76.87
2018-09-13T23:47:55.757Z,76.36
2018-09-13T23:52:48.927Z,75.86
2018-09-13T23:57:42.091Z,76.64
